Time;durP1;ratioP1;P1;durP2;ratioP2;P2;SDS_P1;SDS_P2;PMS_P1;PMS_P2;Temp;Humidity;BMP_temperature;BMP_pressure;BME280_temperature;BME280_humidity;BME280_pressure;Samples;Min_cycle;Max_cycle;Signal;HPM_P1;HPM_P2
2023/12/06 06:10:17;;;;;;;1.20;1.10;;;6.90;96.80;;;7.15;61.97;98186.00;6078907;23;98264;-81
2023/12/06 07:04:55;;;;;;;1.10;0.80;;;7.50;96.80;;;7.28;61.57;98237.34;6120461;23;113974;-81
2023/12/06 07:07:24;;;;;;;2.33;1.10;;;4.90;96.70;;;7.29;61.27;98237.06;6049959;23;122643;-82
2023/12/06 07:12:32;;;;;;;6.70;1.27;;;7.10;96.60;;;7.32;61.25;98251.31;6093915;23;117196;-84
2023/12/06 07:15:18;;;;;;;2.53;1.00;;;4.30;96.10;;;7.35;61.10;98246.03;6120549;23;114867;-83
2023/12/06 07:21:36;;;;;;;2.70;1.27;;;5.40;95.90;;;7.36;61.12;98246.84;6121302;23;124761;-85
2023/12/06 07:35:08;;;;;;;1.97;1.10;;;7.20;96.60;;;7.48;60.88;98267.19;6090689;23;95717;-83
2023/12/06 07:42:24;;;;;;;2.30;1.50;;;7.40;96.60;;;7.46;60.84;98276.88;5973602;23;125179;-85
2023/12/06 07:45:31;;;;;;;1.60;1.03;;;6.70;96.30;;;7.44;61.00;98279.94;5903581;23;124357;-84
2023/12/06 07:48:48;;;;;;;1.20;1.00;;;7.70;96.60;;;7.42;60.98;98287.66;5926303;23;114955;-85
2023/12/06 07:52:35;;;;;;;1.23;0.80;;;7.40;97.10;;;7.41;61.00;98288.75;5972778;23;113910;-84
2023/12/06 07:59:17;;;;;;;1.30;0.90;;;7.10;96.40;;;7.37;61.20;98309.75;5916038;23;125049;-85
2023/12/06 08:02:01;;;;;;;1.53;1.10;;;7.10;96.70;;;7.36;61.00;98310.88;5870323;23;114026;-84
2023/12/06 08:04:53;;;;;;;2.13;1.10;;;9.30;97.50;;;7.30;61.28;98314.81;5825836;23;114404;-83
2023/12/06 08:07:27;;;;;;;2.77;1.17;;;4.30;95.20;;;7.30;61.09;98323.06;5915669;23;123886;-84
2023/12/06 08:10:44;;;;;;;5.37;1.20;;;9.20;97.50;;;7.32;61.44;98331.81;5912720;23;123707;-84
2023/12/06 08:14:30;;;;;;;1.80;1.13;;;4.00;95.10;;;7.30;61.24;98326.63;5832345;24;113188;-83
2023/12/06 08:22:00;;;;;;;2.50;1.30;;;7.60;96.60;;;7.25;61.34;98340.47;5889219;24;125199;-84
2023/12/06 08:24:59;;;;;;;1.90;1.50;;;7.10;96.40;;;7.22;61.07;98351.22;5888541;23;123345;-84
2023/12/06 08:29:05;;;;;;;1.50;1.40;;;7.60;96.60;;;7.17;61.20;98348.56;5865400;23;113791;-85
2023/12/06 08:31:58;;;;;;;5.87;1.90;;;7.10;96.40;;;7.12;61.52;98362.38;5889681;23;114371;-85
2023/12/06 08:34:54;;;;;;;2.87;2.20;;;6.90;96.50;;;7.11;61.07;98361.56;5832769;24;122374;-84
2023/12/06 08:38:09;;;;;;;3.27;2.43;;;4.70;95.40;;;7.08;61.03;98373.97;5807505;24;123347;-84
2023/12/06 08:42:07;;;;;;;3.23;2.60;;;5.70;95.70;;;7.00;60.66;98377.41;5796723;24;115793;-85
2023/12/06 08:45:26;;;;;;;3.10;2.40;;;7.70;96.30;;;6.91;60.40;98381.16;5823142;24;114651;-83
2023/12/06 08:49:06;;;;;;;8.00;3.70;;;5.10;95.20;;;6.87;60.78;98380.91;5854048;24;123990;-84
2023/12/06 08:52:22;;;;;;;4.60;3.73;;;7.10;96.00;;;6.84;60.56;98378.78;5888816;23;122901;-84
2023/12/06 08:55:31;;;;;;;7.40;5.03;;;6.80;96.00;;;6.81;60.63;98390.34;5887284;23;113316;-84
2023/12/06 08:58:27;;;;;;;6.40;4.67;;;6.30;95.80;;;6.81;61.01;98390.34;5889439;24;113397;-84
2023/12/06 09:01:17;;;;;;;5.73;4.50;;;6.60;96.40;;;6.78;60.94;98399.19;5841968;24;124476;-85
2023/12/06 09:05:06;;;;;;;5.40;3.50;;;6.60;96.00;;;6.71;61.00;98398.75;5823701;24;124309;-86
2023/12/06 09:08:00;;;;;;;8.17;4.73;;;5.60;95.70;;;6.69;61.38;98403.69;5798650;23;116189;-83
2023/12/06 09:10:38;;;;;;;5.50;4.40;;;6.70;96.20;;;6.62;61.36;98395.84;5922209;23;114106;-84
2023/12/06 09:13:50;;;;;;;7.87;5.00;;;8.70;97.30;;;6.62;61.71;98406.81;5919850;23;123127;-82
2023/12/06 09:16:53;;;;;;;4.83;4.03;;;3.40;95.00;;;6.57;61.26;98415.13;5944139;23;124926;-84
2023/12/06 09:19:37;;;;;;;6.00;4.83;;;4.70;95.50;;;6.59;61.21;98419.22;5919915;23;114254;-84
2023/12/06 09:22:50;;;;;;;7.37;5.23;;;4.70;95.60;;;6.57;61.80;98424.19;5968777;23;114469;-85
2023/12/06 09:26:27;;;;;;;7.30;5.13;;;6.40;96.30;;;6.57;61.36;98429.66;5876966;23;124429;-83
2023/12/06 09:29:19;;;;;;;6.30;4.90;;;4.00;95.30;;;6.55;61.30;98433.81;5942599;23;122925;-83
2023/12/06 09:31:46;;;;;;;6.43;5.33;;;6.50;96.40;;;6.52;61.29;98435.22;5906705;23;113434;-80
2023/12/06 09:34:15;;;;;;;5.70;4.50;;;6.40;97.10;;;6.52;61.42;98437.97;5927354;23;114257;-81
2023/12/06 09:36:42;;;;;;;6.93;5.20;;;6.60;97.60;;;6.51;61.63;98441.84;5975297;23;124110;-81
2023/12/06 09:39:08;;;;;;;6.90;5.47;;;6.50;96.80;;;6.53;61.27;98442.38;5973800;23;121923;-80
2023/12/06 09:41:41;;;;;;;7.60;5.37;;;6.30;96.50;;;6.54;61.45;98452.22;5972859;23;115419;-78
2023/12/06 09:44:07;;;;;;;6.20;5.10;;;6.40;96.50;;;6.57;61.67;98443.38;5974349;23;114834;-80
2023/12/06 09:46:37;;;;;;;6.57;5.13;;;6.40;96.50;;;6.58;61.27;98441.47;5952665;23;123591;-80
2023/12/06 09:49:04;;;;;;;6.83;5.33;;;6.40;96.50;;;6.53;61.20;98442.38;5951051;23;124307;-80
2023/12/06 09:51:30;;;;;;;8.13;5.97;;;8.80;97.60;;;6.56;61.28;98447.25;5973969;23;113886;-78
2023/12/06 09:53:59;;;;;;;9.17;5.33;;;6.40;96.60;;;6.58;60.78;98452.44;5977015;23;114038;-81
2023/12/06 09:56:35;;;;;;;6.20;5.20;;;6.40;96.20;;;6.56;60.93;98455.50;5974382;23;123246;-79
2023/12/06 09:59:02;;;;;;;7.47;4.93;;;6.40;96.50;;;6.58;61.31;98453.28;5949150;23;123709;-81
2023/12/06 10:01:29;;;;;;;8.07;5.40;;;7.90;97.30;;;6.61;60.86;98458.16;5975193;23;114268;-82
2023/12/06 10:04:03;;;;;;;6.80;4.60;;;6.30;96.20;;;6.58;61.30;98464.25;5948860;23;114267;-79
2023/12/06 10:06:32;;;;;;;6.57;4.87;;;6.40;96.30;;;6.55;61.16;98451.09;5971670;23;123883;-78
2023/12/06 10:08:58;;;;;;;6.53;5.67;;;4.00;95.20;;;6.55;60.86;98462.06;5981302;23;124221;-79
2023/12/06 10:11:25;;;;;;;7.10;5.43;;;6.30;96.20;;;6.53;61.01;98461.56;6035641;23;114459;-79
2023/12/06 10:13:53;;;;;;;7.77;5.23;;;8.10;97.20;;;6.52;60.76;98475.56;6030177;23;113538;-80
2023/12/06 10:16:21;;;;;;;7.37;5.50;;;6.30;96.10;;;6.49;60.71;98459.69;6040955;23;124188;-81
2023/12/06 10:18:55;;;;;;;5.47;4.63;;;9.20;97.40;;;6.50;61.04;98475.88;6038445;23;123990;-80
2023/12/06 10:21:24;;;;;;;6.50;5.17;;;6.30;96.20;;;6.45;61.27;98464.97;6036158;23;113702;-81
2023/12/06 10:23:59;;;;;;;7.40;5.70;;;7.40;96.50;;;6.48;61.12;98472.63;5989847;23;113100;-81
2023/12/06 10:26:38;;;;;;;7.50;5.57;;;8.40;96.90;;;6.49;60.73;98474.22;6039011;23;124272;-80
2023/12/06 10:29:06;;;;;;;7.37;5.13;;;6.30;96.10;;;6.51;60.95;98474.75;6033397;23;122576;-81
2023/12/06 10:31:42;;;;;;;7.77;5.60;;;9.00;97.30;;;6.52;60.98;98484.63;6033105;23;114223;-79
2023/12/06 10:34:16;;;;;;;5.10;4.47;;;9.70;97.50;;;6.51;61.04;98477.50;6035943;23;114349;-81
2023/12/06 10:36:43;;;;;;;6.27;4.80;;;7.80;97.00;;;6.49;60.89;98476.97;6039200;23;123691;-80
2023/12/06 10:39:15;;;;;;;7.27;4.83;;;6.30;96.50;;;6.52;60.60;98481.06;5988932;23;122128;-84
2023/12/06 10:41:51;;;;;;;7.10;5.07;;;8.30;97.00;;;6.54;60.40;98474.16;6046735;23;114078;-84
2023/12/06 10:44:23;;;;;;;6.53;4.93;;;6.40;96.30;;;6.55;60.69;98470.31;5963418;23;112475;-81
2023/12/06 10:47:12;;;;;;;7.53;5.50;;;6.60;96.10;;;6.54;60.96;98479.66;5986527;23;124849;-82
2023/12/06 10:49:50;;;;;;;6.47;4.73;;;4.90;95.30;;;6.57;60.61;98473.56;5963742;23;122677;-82
2023/12/06 10:52:20;;;;;;;7.20;5.70;;;9.90;97.60;;;6.57;61.20;98481.81;5937261;23;113595;-83
2023/12/06 10:55:07;;;;;;;8.20;5.33;;;9.00;97.70;;;6.62;61.30;98478.19;5939010;23;111871;-80
2023/12/06 10:58:04;;;;;;;7.60;5.20;;;6.60;96.40;;;6.67;60.41;98486.38;5905647;23;123323;-82
2023/12/06 11:00:37;;;;;;;6.23;4.43;;;6.60;97.00;;;6.68;60.38;98478.94;5937527;23;123768;-81
2023/12/06 11:03:27;;;;;;;7.63;4.70;;;4.00;95.00;;;6.69;60.22;98486.06;5960311;23;112713;-83
2023/12/06 11:06:55;;;;;;;5.23;4.40;;;6.60;95.90;;;6.63;59.99;98483.38;5963193;23;112069;-82
2023/12/06 11:10:14;;;;;;;5.37;4.47;;;6.80;95.90;;;6.58;60.44;98486.22;5845562;24;124172;-83
2023/12/06 11:13:19;;;;;;;5.40;4.80;;;6.60;95.80;;;6.59;60.17;98487.03;5776589;24;122516;-85
2023/12/06 11:16:29;;;;;;;6.57;4.63;;;6.30;95.70;;;6.58;60.20;98490.84;5818989;24;113286;-84
2023/12/06 11:19:05;;;;;;;5.80;4.87;;;6.30;95.70;;;6.57;60.17;98484.56;5827915;24;112733;-85
2023/12/06 11:21:50;;;;;;;6.77;4.93;;;6.50;95.70;;;6.52;60.54;98495.59;5826667;24;124776;-83
2023/12/06 11:24:20;;;;;;;7.10;4.67;;;6.30;95.70;;;6.54;60.35;98485.16;5829237;24;122092;-85
2023/12/06 11:26:56;;;;;;;6.77;4.57;;;6.50;96.70;;;6.54;60.07;98485.16;5822958;24;114241;-85
2023/12/06 11:29:43;;;;;;;7.33;4.60;;;6.60;95.80;;;6.52;60.12;98501.09;5781402;24;114539;-86
2023/12/06 11:32:42;;;;;;;6.00;4.10;;;9.00;96.70;;;6.50;60.53;98494.25;5780500;24;124063;-85
2023/12/06 11:35:26;;;;;;;10.83;5.40;;;7.60;96.20;;;6.52;60.03;98492.84;5800764;24;124304;-84
2023/12/06 11:38:05;;;;;;;6.30;3.97;;;6.50;95.70;;;6.56;60.17;98501.34;5821791;24;112903;-83
2023/12/06 11:40:58;;;;;;;9.03;5.30;;;9.30;97.00;;;6.57;60.78;98506.53;5801638;24;113730;-84
2023/12/06 11:43:48;;;;;;;7.10;4.83;;;8.40;96.50;;;6.54;60.53;98509.84;5799885;24;123997;-83
2023/12/06 11:46:16;;;;;;;6.37;4.30;;;6.40;96.30;;;6.54;59.99;98512.59;5857256;24;123776;-84
2023/12/06 11:49:03;;;;;;;6.13;4.60;;;6.30;95.80;;;6.55;60.45;98522.44;5850960;24;112637;-83
2023/12/06 11:51:44;;;;;;;5.83;4.30;;;6.30;95.60;;;6.56;60.00;98532.34;5848257;24;112579;-81
2023/12/06 11:54:14;;;;;;;5.80;4.50;;;6.40;95.60;;;6.55;60.30;98525.19;5788249;24;122595;-86
2023/12/06 11:56:42;;;;;;;5.20;4.13;;;6.50;96.10;;;6.57;60.46;98531.22;5855280;24;122846;-82
2023/12/06 11:59:35;;;;;;;5.90;4.60;;;9.60;97.60;;;6.63;60.73;98531.97;5855318;24;114243;-82
2023/12/06 12:02:27;;;;;;;6.47;4.60;;;6.00;95.50;;;6.60;60.20;98527.06;5808518;24;114730;-83
2023/12/06 12:04:58;;;;;;;5.60;4.80;;;6.40;95.60;;;6.58;60.31;98534.78;5826496;24;122219;-85
2023/12/06 12:07:45;;;;;;;5.67;4.10;;;3.20;94.30;;;6.58;60.11;98527.38;5882659;24;123201;-83
2023/12/06 12:10:14;;;;;;;8.23;5.40;;;5.10;95.00;;;6.55;60.29;98529.88;5834770;24;112253;-85
2023/12/06 12:12:44;;;;;;;5.97;4.40;;;6.40;96.00;;;6.54;59.85;98531.00;5862210;24;112749;-84
2023/12/06 12:15:18;;;;;;;5.23;4.23;;;7.10;95.90;;;6.52;60.17;98528.53;5859605;24;123381;-85
2023/12/06 12:17:54;;;;;;;6.70;4.57;;;6.60;96.20;;;6.56;60.08;98539.75;5859249;24;123370;-81
2023/12/06 12:21:00;;;;;;;6.03;4.20;;;8.60;96.80;;;6.55;59.58;98538.94;5851460;23;114471;-82
2023/12/06 12:23:32;;;;;;;8.93;4.90;;;9.70;97.00;;;6.56;59.98;98546.06;5817690;24;114363;-83
2023/12/06 12:26:18;;;;;;;4.77;3.70;;;6.30;95.50;;;6.56;60.18;98537.84;5867485;24;122524;-84
2023/12/06 12:29:34;;;;;;;6.20;4.57;;;4.00;94.50;;;6.57;59.58;98528.47;5882835;24;124667;-83
2023/12/06 12:32:06;;;;;;;7.57;4.63;;;6.40;95.90;;;6.60;60.16;98525.13;5838143;24;114504;-84
2023/12/06 12:34:49;;;;;;;6.20;3.90;;;3.40;94.40;;;6.63;59.74;98534.72;5827468;24;112607;-84
2023/12/06 12:37:31;;;;;;;5.43;4.37;;;6.40;96.00;;;6.64;60.38;98534.44;5827329;24;124060;-84
2023/12/06 12:40:09;;;;;;;5.07;3.67;;;6.70;95.60;;;6.69;60.05;98535.47;5785595;24;122696;-84
2023/12/06 12:43:01;;;;;;;6.20;4.63;;;6.70;95.60;;;6.68;60.11;98534.66;5829205;24;113077;-84
2023/12/06 12:45:58;;;;;;;5.97;4.17;;;6.40;95.50;;;6.71;59.72;98531.31;5789764;24;114014;-83
2023/12/06 12:48:39;;;;;;;5.00;3.90;;;9.60;96.80;;;6.76;59.70;98535.94;5852459;23;124096;-82
2023/12/06 12:51:53;;;;;;;5.90;4.37;;;6.50;95.40;;;6.74;59.28;98536.22;5935965;23;123866;-84
2023/12/06 12:55:45;;;;;;;10.33;3.77;;;7.20;95.50;;;6.73;59.74;98539.28;5915081;23;114899;-85
2023/12/06 12:58:52;;;;;;;7.87;4.47;;;6.80;95.40;;;6.74;59.77;98549.94;5916990;23;96762;-84
2023/12/06 13:02:10;;;;;;;6.27;4.43;;;6.50;95.20;;;6.73;59.56;98539.28;5973318;23;123278;-82
2023/12/06 13:06:09;;;;;;;7.17;4.60;;;3.90;94.10;;;6.64;59.43;98548.16;5997185;23;122511;-84
2023/12/06 13:09:20;;;;;;;5.63;4.00;;;6.60;95.20;;;6.61;59.70;98547.94;5950669;23;113163;-84
2023/12/06 13:12:07;;;;;;;6.70;4.80;;;6.40;95.80;;;6.66;59.76;98549.78;5980190;23;113456;-85
2023/12/06 13:19:26;;;;;;;7.07;3.90;;;6.50;95.50;;;6.69;59.35;98557.44;5944727;23;124909;-85
2023/12/06 13:22:34;;;;;;;6.87;4.10;;;5.10;94.40;;;6.70;58.92;98561.84;5943653;23;115883;-83
2023/12/06 13:25:59;;;;;;;6.80;4.57;;;6.50;95.30;;;6.71;59.46;98567.00;5853311;23;115524;-85
2023/12/06 13:29:42;;;;;;;6.30;4.10;;;6.70;95.10;;;6.74;58.94;98566.41;5897083;23;123835;-85
2023/12/06 13:33:25;;;;;;;5.33;4.20;;;5.00;94.40;;;6.74;59.28;98569.16;5943267;23;124269;-84
2023/12/06 13:40:45;;;;;;;8.03;3.97;;;6.40;94.90;;;6.76;59.14;98571.63;5943248;23;114989;-84
2023/12/06 13:51:11;;;;;;;5.90;3.87;;;5.40;94.40;;;6.79;58.73;98573.78;5755779;24;115353;-84
2023/12/06 14:01:22;;;;;;;4.93;3.60;;;7.00;95.50;;;6.85;58.71;98583.59;5677910;24;124321;-85
2023/12/06 14:04:35;;;;;;;6.83;4.57;;;4.60;94.00;;;6.85;58.67;98589.09;5650643;24;114002;-83
2023/12/06 14:08:13;;;;;;;6.10;4.27;;;5.80;94.40;;;6.80;58.51;98587.25;5693996;24;114744;-86
2023/12/06 14:13:28;;;;;;;5.33;4.00;;;6.60;94.70;;;6.78;59.15;98591.38;6054496;23;124303;-86
2023/12/06 14:20:37;;;;;;;5.73;4.20;;;6.70;94.80;;;6.78;58.72;98600.44;6054128;23;115101;-81
2023/12/06 14:25:37;;;;;;;6.33;4.33;;;6.60;94.70;;;6.79;59.02;98604.81;6053750;22;96863;-85
2023/12/06 14:28:44;;;;;;;7.10;4.50;;;6.60;95.20;;;6.81;58.85;98607.28;5981055;23;114275;-84
2023/12/06 14:32:24;;;;;;;6.57;4.10;;;4.90;94.00;;;6.81;58.51;98599.03;5886836;23;113878;-83
2023/12/06 14:40:44;;;;;;;5.13;4.03;;;6.70;94.70;;;6.87;58.78;98608.84;6056846;23;95788;-85
2023/12/06 14:44:14;;;;;;;5.30;4.40;;;6.90;95.30;;;6.84;58.39;98601.19;6024322;23;114361;-85
2023/12/06 14:47:27;;;;;;;6.83;4.10;;;6.70;94.70;;;6.85;58.59;98613.78;5984490;23;123169;-83
2023/12/06 14:50:38;;;;;;;5.50;4.00;;;6.90;94.70;;;6.85;58.54;98617.38;5934954;23;122808;-83
2023/12/06 14:53:16;;;;;;;6.43;4.07;;;6.10;94.40;;;6.88;58.53;98621.47;5979832;23;115922;-82
2023/12/06 14:55:51;;;;;;;5.60;4.07;;;6.90;95.20;;;6.92;58.62;98616.22;6024163;23;113711;-81
2023/12/06 14:58:37;;;;;;;7.17;4.90;;;7.00;94.80;;;6.95;58.58;98634.84;5967129;23;125864;-84
2023/12/06 15:01:56;;;;;;;6.00;4.03;;;9.70;96.70;;;7.00;58.58;98641.09;5880964;23;122341;-82
2023/12/06 15:05:14;;;;;;;4.83;4.00;;;7.10;94.80;;;7.01;58.26;98640.00;5935041;23;114627;-80
2023/12/06 15:07:48;;;;;;;5.07;3.67;;;5.40;94.00;;;7.01;58.15;98639.16;5893416;23;113722;-81
2023/12/06 15:10:17;;;;;;;5.33;3.47;;;4.80;93.70;;;7.03;58.38;98640.50;5900786;23;123948;-84
2023/12/06 15:13:50;;;;;;;5.63;4.00;;;5.30;94.70;;;7.05;58.26;98649.28;5844927;23;123924;-84
2023/12/06 15:16:41;;;;;;;5.63;3.97;;;6.80;94.50;;;7.10;57.99;98650.34;5878291;23;114896;-85
2023/12/06 15:19:26;;;;;;;4.33;3.90;;;7.00;94.90;;;7.12;57.99;98656.34;5858901;24;114957;-81
2023/12/06 15:22:10;;;;;;;5.03;3.97;;;5.50;93.90;;;7.08;58.09;98654.19;5852754;23;123858;-84
2023/12/06 15:25:03;;;;;;;5.80;3.70;;;7.40;94.80;;;7.09;57.98;98655.00;5857636;23;124450;-83
2023/12/06 15:28:54;;;;;;;5.57;4.33;;;7.00;94.80;;;7.08;58.10;98667.91;5882086;23;116072;-82
2023/12/06 15:31:48;;;;;;;6.03;4.70;;;7.30;94.50;;;7.13;57.96;98666.22;5870459;24;114974;-84
2023/12/06 15:35:17;;;;;;;5.70;3.90;;;7.10;94.50;;;7.15;57.82;98672.25;5783764;24;122651;-85
2023/12/06 15:39:07;;;;;;;7.23;4.57;;;6.60;94.30;;;7.16;57.82;98679.38;5752660;24;124447;-81
2023/12/06 15:41:52;;;;;;;6.57;4.20;;;7.20;94.50;;;7.18;57.63;98683.47;5759326;24;114820;-81
2023/12/06 15:44:35;;;;;;;5.03;3.70;;;5.50;94.00;;;7.18;57.94;98680.72;5805193;24;113571;-84
2023/12/06 15:47:28;;;;;;;7.10;4.30;;;7.10;94.60;;;7.21;57.74;98682.06;5797486;24;122444;-83
2023/12/06 15:57:46;;;;;;;7.20;4.03;;;6.40;94.00;;;7.15;57.70;98691.50;5782092;24;115141;-85
2023/12/06 16:04:42;;;;;;;5.90;4.03;;;6.90;94.20;;;7.16;57.74;98712.34;5782233;24;124787;-84
2023/12/06 16:07:25;;;;;;;5.93;3.50;;;10.20;95.10;;;7.18;57.52;98712.88;5674725;24;115571;-84
2023/12/06 16:11:12;;;;;;;7.50;4.63;;;6.90;94.40;;;7.19;57.93;98725.50;5637517;24;114877;-85
2023/12/06 16:38:44;;;;;;;8.40;4.40;;;7.00;94.30;;;7.21;57.52;98775.50;6056659;23;97997;-85
2023/12/06 16:41:56;;;;;;;7.43;4.80;;;7.00;94.20;;;7.21;57.54;98780.97;6002359;23;122761;-83
2023/12/06 16:44:53;;;;;;;6.30;4.67;;;7.10;94.40;;;7.18;57.86;98784.31;5964953;23;114012;-86
2023/12/06 16:58:42;;;;;;;5.47;3.97;;;6.90;94.20;;;7.14;57.76;98807.97;6068975;23;99264;-83
2023/12/06 17:05:32;;;;;;;7.40;4.80;;;4.90;93.40;;;7.11;57.61;98800.31;6058408;23;124762;-83
2023/12/06 17:13:47;;;;;;;5.50;4.53;;;6.90;94.20;;;7.15;57.92;98812.38;6082882;23;98868;-82
2023/12/06 17:16:17;;;;;;;6.80;4.43;;;4.70;93.40;;;7.15;57.96;98823.38;6066574;23;122550;-79
2023/12/06 17:19:13;;;;;;;7.20;5.23;;;7.10;95.80;;;7.12;57.68;98824.75;6117554;23;113557;-83
2023/12/06 17:21:58;;;;;;;6.60;4.83;;;5.00;93.50;;;7.15;58.34;98823.38;6085643;23;113284;-79
2023/12/06 17:24:41;;;;;;;7.40;5.37;;;7.00;95.20;;;7.23;58.37;98840.03;6089058;23;123542;-80
2023/12/06 17:27:32;;;;;;;8.10;5.37;;;7.10;95.80;;;7.26;58.38;98833.16;6066419;23;122996;-80
2023/12/06 17:29:59;;;;;;;8.47;5.70;;;7.70;95.00;;;7.29;58.74;98844.38;6071970;23;115378;-79
2023/12/06 17:32:28;;;;;;;7.43;5.23;;;7.90;95.70;;;7.32;58.59;98855.91;6109155;23;114236;-82
2023/12/06 17:35:31;;;;;;;6.30;4.60;;;7.30;95.80;;;7.30;58.10;98842.44;6114701;23;123552;-85
2023/12/06 17:37:57;;;;;;;7.17;5.23;;;7.30;94.80;;;7.27;58.30;98843.81;6059259;23;123704;-78
2023/12/06 17:40:32;;;;;;;6.03;4.23;;;7.10;95.30;;;7.30;58.69;98848.75;6109040;23;114282;-84
2023/12/06 17:43:00;;;;;;;6.90;4.40;;;7.20;95.10;;;7.33;58.38;98852.03;6006778;23;114791;-83
2023/12/06 17:45:36;;;;;;;5.60;4.23;;;7.10;94.80;;;7.39;58.16;98856.34;6106308;23;124058;-83
2023/12/06 17:48:12;;;;;;;5.83;3.60;;;7.10;95.10;;;7.41;57.98;98856.91;6085422;23;122421;-81
2023/12/06 17:50:45;;;;;;;5.60;3.60;;;7.20;94.60;;;7.41;57.87;98860.47;6101423;23;113701;-81
2023/12/06 17:53:12;;;;;;;4.10;3.20;;;10.60;95.90;;;7.39;57.85;98857.19;6103964;23;114315;-81
